الصفحة الرئيسية
METAR-TAF:

METAR-TAF

مطار :

Hofu, اليابان

دائرة عرض: 34-02N, خط طول: 131-33E, ارتفاع: 2 متر

مراقبة الطقس الحالي

تاريخ ووقت الإصدار 1ساعة و 10 دقيقة قبل الساعة 01:42UTC
ريح 4 عقدة من الغرب/الشمال الغربي, الاتجاه يتراوح بين الغرب و الشمال/الشمال الغربي
درجة الحرارة 26°درجة مئوية
الرطوبة 70%
ضغط 1010 hPa
الرؤية 10 كم أو أكثر
غيوم قليلة على ارتفاع 2000 قدم
ملبد بالغيوم على ارتفاع 15000 قدم

METAR: RJOF 250142Z 30004KT 270V340 9999 FEW020 OVC150 26/20 Q1010 RMK 1CU020 8AS150 A2985

زمن: 11:52 (02:52 UTC)


TAF: مفقودة

أرصاد الطقس والتوقعات من أكثر من 4000 مطار (تقارير الطقس للمطار METAR والتنبؤ بالطقس بالمطارTAF).

المحطات المتاحة هي النقط الصفراء والحمراء على الخريطة.

حرك المؤشر فوق النقطة لمعرفة اسم المحطة.

ثم انقر لمعرفة أرصاد وتوقعات الطقس.

لتغيير الخارطة: اضغط على الأزرار الخضراء مع رمز الصليب الأسود للتكبير. على الزر الأخضر مع شرطة للتصغير، أو على الأسهم الخضراء للخرائط المجاورة.


METAR-TAF: